createdAt,value
2019-05-11T00:00:37.788Z,1000.55
2019-05-11T00:01:37.783Z,1000.55
2019-05-11T00:02:37.779Z,1000.56
2019-05-11T00:03:37.777Z,1000.63
2019-05-11T00:04:37.771Z,1000.63
2019-05-11T00:05:37.765Z,1000.67
2019-05-11T00:06:37.763Z,1000.71
2019-05-11T00:07:37.756Z,1000.70
2019-05-11T00:08:37.756Z,1000.65
2019-05-11T00:09:37.747Z,1000.58
2019-05-11T00:10:37.742Z,1000.56
2019-05-11T00:11:37.740Z,1000.51
2019-05-11T00:12:37.744Z,1000.49
2019-05-11T00:13:37.730Z,1000.45
2019-05-11T00:14:37.725Z,1000.46
2019-05-11T00:15:37.725Z,1000.47
2019-05-11T00:16:37.716Z,1000.48
2019-05-11T00:17:37.711Z,1000.54
2019-05-11T00:18:37.707Z,1000.60
2019-05-11T00:19:37.702Z,1000.63
2019-05-11T00:20:37.698Z,1000.64
2019-05-11T00:21:37.694Z,1000.64
2019-05-11T00:22:37.690Z,1000.69
2019-05-11T00:23:37.690Z,1000.70
2019-05-11T00:24:37.682Z,1000.69
2019-05-11T00:25:37.675Z,1000.70
2019-05-11T00:26:37.671Z,1000.64
2019-05-11T00:27:37.665Z,1000.62
2019-05-11T00:28:37.663Z,1000.57
2019-05-11T00:29:37.657Z,1000.54
2019-05-11T00:30:37.651Z,1000.52
2019-05-11T00:31:37.648Z,1000.51
2019-05-11T00:32:37.643Z,1000.52
2019-05-11T00:33:37.639Z,1000.50
2019-05-11T00:34:37.633Z,1000.45
2019-05-11T00:35:37.631Z,1000.53
2019-05-11T00:36:37.628Z,1000.55
2019-05-11T00:37:37.620Z,1000.57
2019-05-11T00:38:37.617Z,1000.57
2019-05-11T00:39:37.612Z,1000.62
2019-05-11T00:40:37.607Z,1000.59
2019-05-11T00:41:37.604Z,1000.63
2019-05-11T00:42:37.598Z,1000.65
2019-05-11T00:43:37.592Z,1000.68
2019-05-11T00:44:37.589Z,1000.67
2019-05-11T00:45:37.584Z,1000.68
2019-05-11T00:46:37.579Z,1000.63
2019-05-11T00:47:37.573Z,1000.64
2019-05-11T00:48:37.571Z,1000.54
2019-05-11T00:49:37.566Z,1000.54
2019-05-11T00:50:39.811Z,1000.55
2019-05-11T00:51:37.556Z,1000.58
2019-05-11T00:52:37.560Z,1000.58
2019-05-11T00:53:37.547Z,1000.58
2019-05-11T00:54:37.542Z,1000.58
2019-05-11T00:55:37.537Z,1000.52
2019-05-11T00:56:37.534Z,1000.49
2019-05-11T00:57:37.528Z,1000.51
2019-05-11T00:58:37.525Z,1000.46
2019-05-11T00:59:37.519Z,1000.48
2019-05-11T01:00:37.515Z,1000.44
2019-05-11T01:01:37.509Z,1000.44
2019-05-11T01:02:37.505Z,1000.41
2019-05-11T01:03:37.502Z,1000.36
2019-05-11T01:04:37.515Z,1000.33
2019-05-11T01:05:37.495Z,1000.29
2019-05-11T01:06:37.508Z,1000.28
2019-05-11T01:07:37.484Z,1000.26
2019-05-11T01:08:37.478Z,1000.29
2019-05-11T01:09:37.490Z,1000.28
2019-05-11T01:10:42.135Z,1000.25
2019-05-11T01:11:37.464Z,1000.27
2019-05-11T01:12:37.473Z,1000.25
2019-05-11T01:13:37.453Z,1000.26
2019-05-11T01:14:37.449Z,1000.29
2019-05-11T01:15:37.448Z,1000.29
2019-05-11T01:16:37.443Z,1000.30
2019-05-11T01:17:37.436Z,1000.29
2019-05-11T01:18:37.431Z,1000.28
2019-05-11T01:19:37.429Z,1000.20
2019-05-11T01:20:37.430Z,1000.17
2019-05-11T01:21:37.417Z,1000.21
2019-05-11T01:22:37.476Z,1000.23
2019-05-11T01:23:37.408Z,1000.20
2019-05-11T01:24:37.403Z,1000.25
2019-05-11T01:25:37.398Z,1000.23
2019-05-11T01:26:37.449Z,1000.29
2019-05-11T01:27:37.389Z,1000.32
2019-05-11T01:28:37.384Z,1000.29
2019-05-11T01:29:37.378Z,1000.33
2019-05-11T01:30:38.876Z,1000.33
2019-05-11T01:31:37.371Z,1000.37
2019-05-11T01:32:37.371Z,1000.46
2019-05-11T01:33:37.360Z,1000.45
2019-05-11T01:34:37.356Z,1000.44
2019-05-11T01:35:37.353Z,1000.45
2019-05-11T01:36:37.346Z,1000.41
2019-05-11T01:37:37.341Z,1000.45
2019-05-11T01:38:37.339Z,1000.43
2019-05-11T01:40:56.356Z,1000.43
2019-05-11T01:41:41.035Z,1000.48
2019-05-11T01:42:37.319Z,1000.43
2019-05-11T01:43:37.315Z,1000.41
2019-05-11T01:44:37.309Z,1000.41
2019-05-11T01:45:37.303Z,1000.38
2019-05-11T01:46:37.299Z,1000.38
2019-05-11T01:47:37.298Z,1000.39
2019-05-11T01:48:37.294Z,1000.41
2019-05-11T01:49:37.288Z,1000.44
2019-05-11T01:50:37.288Z,1000.46
2019-05-11T01:51:37.274Z,1000.49
2019-05-11T01:52:37.272Z,1000.49
2019-05-11T01:53:37.265Z,1000.51
2019-05-11T01:54:37.261Z,1000.47
2019-05-11T01:55:37.255Z,1000.47
2019-05-11T01:56:37.255Z,1000.43
2019-05-11T01:57:37.248Z,1000.43
2019-05-11T01:58:37.244Z,1000.40
2019-05-11T01:59:37.238Z,1000.36
2019-05-11T02:00:37.235Z,1000.40
2019-05-11T02:01:37.227Z,1000.35
2019-05-11T02:02:37.224Z,1000.37
2019-05-11T02:03:37.219Z,1000.35
2019-05-11T02:04:37.224Z,1000.38
2019-05-11T02:05:37.209Z,1000.42
2019-05-11T02:06:37.203Z,1000.38
2019-05-11T02:07:37.214Z,1000.34
2019-05-11T02:08:37.194Z,1000.35
2019-05-11T02:09:37.190Z,1000.32
2019-05-11T02:10:37.184Z,1000.34
2019-05-11T02:11:37.180Z,1000.34
2019-05-11T02:12:37.176Z,1000.32
2019-05-11T02:13:37.171Z,1000.30
2019-05-11T02:14:37.165Z,1000.32
2019-05-11T02:15:37.163Z,1000.32
2019-05-11T02:16:37.157Z,1000.29
2019-05-11T02:19:05.557Z,1000.28
2019-05-11T02:20:05.954Z,1000.25
2019-05-11T02:22:47.214Z,1000.27
2019-05-11T02:23:47.214Z,1000.23
2019-05-11T02:24:47.202Z,1000.23
2019-05-11T02:25:47.198Z,1000.24
2019-05-11T02:26:47.193Z,1000.20
2019-05-11T02:27:47.189Z,1000.20
2019-05-11T02:28:47.185Z,1000.20
2019-05-11T02:29:47.177Z,1000.17
2019-05-11T02:30:47.175Z,1000.17
2019-05-11T02:31:47.169Z,1000.13
2019-05-11T02:33:59.428Z,1000.10
2019-05-11T02:34:59.888Z,1000.08
2019-05-11T02:39:07.134Z,1000.07
2019-05-11T02:40:07.129Z,1000.07
2019-05-11T02:41:10.115Z,1000.08
2019-05-11T02:44:03.812Z,1000.08
2019-05-11T02:45:04.576Z,1000.07
2019-05-11T02:46:04.820Z,1000.09
2019-05-11T02:47:06.625Z,1000.15
2019-05-11T02:48:03.787Z,1000.13
2019-05-11T02:49:06.578Z,1000.21
2019-05-11T02:50:03.824Z,1000.15
2019-05-11T02:51:03.773Z,1000.16
2019-05-11T02:52:03.767Z,1000.14
2019-05-11T02:53:03.773Z,1000.10
2019-05-11T02:54:03.765Z,1000.11
2019-05-11T02:55:03.751Z,1000.11
2019-05-11T02:56:03.769Z,1000.14
2019-05-11T02:57:03.746Z,1000.17
2019-05-11T02:58:03.735Z,1000.12
2019-05-11T02:59:03.732Z,1000.10
2019-05-11T03:00:03.723Z,1000.14
2019-05-11T03:01:03.719Z,1000.14
2019-05-11T03:02:03.714Z,1000.10
2019-05-11T03:03:03.710Z,1000.12
2019-05-11T03:04:03.708Z,1000.12
2019-05-11T03:05:03.698Z,1000.06
2019-05-11T03:06:03.697Z,1000.09
2019-05-11T03:07:03.688Z,1000.11
2019-05-11T03:08:03.692Z,1000.12
2019-05-11T03:09:03.696Z,1000.17
2019-05-11T03:10:03.670Z,1000.19
2019-05-11T03:11:03.669Z,1000.20
2019-05-11T03:12:03.666Z,1000.18
2019-05-11T03:13:03.655Z,1000.17
2019-05-11T03:14:03.802Z,1000.17
2019-05-11T03:15:03.647Z,1000.19
2019-05-11T03:16:03.640Z,1000.24
2019-05-11T03:17:03.636Z,1000.21
2019-05-11T03:18:03.631Z,1000.23
2019-05-11T03:19:03.627Z,1000.24
2019-05-11T03:20:03.618Z,1000.24
2019-05-11T03:21:03.615Z,1000.23
2019-05-11T03:22:03.609Z,1000.25
2019-05-11T03:23:03.613Z,1000.28
2019-05-11T03:24:03.637Z,1000.33
2019-05-11T03:25:03.600Z,1000.33
2019-05-11T03:26:03.699Z,1000.37
2019-05-11T03:27:03.604Z,1000.33
2019-05-11T03:28:03.579Z,1000.37
2019-05-11T03:29:03.575Z,1000.34
2019-05-11T03:30:03.574Z,1000.33
2019-05-11T03:31:03.585Z,1000.35
2019-05-11T03:32:03.558Z,1000.34
2019-05-11T03:33:03.562Z,1000.35
2019-05-11T03:34:03.550Z,1000.33
2019-05-11T03:35:03.553Z,1000.34
2019-05-11T03:36:03.536Z,1000.32
2019-05-11T03:37:03.532Z,1000.33
2019-05-11T03:38:03.528Z,1000.30
2019-05-11T03:39:03.522Z,1000.28
2019-05-11T03:40:03.519Z,1000.29
2019-05-11T03:41:03.510Z,1000.34
2019-05-11T03:42:13.895Z,1000.36
2019-05-11T03:43:03.504Z,1000.35
2019-05-11T03:44:03.496Z,1000.39
2019-05-11T03:45:03.490Z,1000.36
2019-05-11T03:46:03.489Z,1000.36
2019-05-11T03:47:03.495Z,1000.34
2019-05-11T03:48:03.481Z,1000.37
2019-05-11T03:49:03.476Z,1000.33
2019-05-11T03:50:03.465Z,1000.29
2019-05-11T03:51:03.462Z,1000.29
2019-05-11T03:52:03.459Z,1000.31
2019-05-11T03:53:03.457Z,1000.26
2019-05-11T03:54:03.445Z,1000.33
2019-05-11T03:55:03.448Z,1000.34
2019-05-11T03:56:03.445Z,1000.28
2019-05-11T03:57:03.432Z,1000.33
2019-05-11T03:58:03.430Z,1000.31
2019-05-11T03:59:03.420Z,1000.35
2019-05-11T04:00:03.413Z,1000.31
2019-05-11T04:01:03.408Z,1000.29
2019-05-11T04:02:03.410Z,1000.28
2019-05-11T04:03:03.404Z,1000.30
2019-05-11T04:04:03.397Z,1000.27
2019-05-11T04:05:03.388Z,1000.26
2019-05-11T04:06:03.403Z,1000.34
2019-05-11T04:07:03.380Z,1000.32
2019-05-11T04:08:03.373Z,1000.30
2019-05-11T04:09:03.368Z,1000.31
2019-05-11T04:10:03.365Z,1000.32
2019-05-11T04:11:03.359Z,1000.33
2019-05-11T04:12:03.357Z,1000.34
2019-05-11T04:13:03.348Z,1000.38
2019-05-11T04:14:03.354Z,1000.40
2019-05-11T04:15:03.343Z,1000.41
2019-05-11T04:16:03.338Z,1000.45
2019-05-11T04:17:03.329Z,1000.48
2019-05-11T04:18:03.328Z,1000.49
2019-05-11T04:19:03.317Z,1000.52
2019-05-11T04:20:03.317Z,1000.49
2019-05-11T04:21:03.307Z,1000.50
2019-05-11T04:22:03.306Z,1000.50
2019-05-11T04:23:03.295Z,1000.48
2019-05-11T04:24:03.291Z,1000.45
2019-05-11T04:25:03.285Z,1000.44
2019-05-11T04:26:03.285Z,1000.42
2019-05-11T04:27:03.275Z,1000.45
2019-05-11T04:28:03.276Z,1000.36
2019-05-11T04:29:03.317Z,1000.36
2019-05-11T04:30:03.313Z,1000.35
2019-05-11T04:31:03.341Z,1000.36
2019-05-11T04:32:03.250Z,1000.36
2019-05-11T04:33:03.267Z,1000.36
2019-05-11T04:34:03.240Z,1000.33
2019-05-11T04:35:03.251Z,1000.32
2019-05-11T04:36:03.229Z,1000.28
2019-05-11T04:37:03.224Z,1000.30
2019-05-11T04:38:03.218Z,1000.30
2019-05-11T04:39:03.215Z,1000.27
2019-05-11T04:40:03.213Z,1000.27
2019-05-11T04:41:03.343Z,1000.25
2019-05-11T04:42:03.201Z,1000.20
2019-05-11T04:43:03.196Z,1000.28
2019-05-11T04:44:03.191Z,1000.26
2019-05-11T04:45:03.183Z,1000.26
2019-05-11T04:46:03.180Z,1000.25
2019-05-11T04:47:03.178Z,1000.29
2019-05-11T04:48:03.167Z,1000.28
2019-05-11T04:49:03.163Z,1000.30
2019-05-11T04:50:03.161Z,1000.26
2019-05-11T04:51:03.159Z,1000.29
2019-05-11T04:52:03.147Z,1000.29
2019-05-11T04:53:03.144Z,1000.28
2019-05-11T04:54:03.145Z,1000.29
2019-05-11T04:55:03.133Z,1000.24
2019-05-11T04:56:03.127Z,1000.31
2019-05-11T04:57:03.121Z,1000.33
2019-05-11T04:58:03.117Z,1000.33
2019-05-11T04:59:03.112Z,1000.30
2019-05-11T05:00:03.157Z,1000.28
2019-05-11T05:01:03.101Z,1000.29
2019-05-11T05:02:03.098Z,1000.33
2019-05-11T05:03:03.090Z,1000.29
2019-05-11T05:04:13.244Z,1000.31
2019-05-11T05:05:03.081Z,1000.33
2019-05-11T05:06:20.882Z,1000.34
2019-05-11T05:07:08.566Z,1000.33
2019-05-11T05:08:09.724Z,1000.35
2019-05-11T05:09:03.566Z,1000.35
2019-05-11T05:10:03.056Z,1000.38
2019-05-11T05:11:03.050Z,1000.38
2019-05-11T05:12:03.045Z,1000.45
2019-05-11T05:13:10.659Z,1000.44
2019-05-11T05:14:08.124Z,1000.46
2019-05-11T05:15:03.029Z,1000.45
2019-05-11T05:16:03.024Z,1000.50
2019-05-11T05:17:03.019Z,1000.51
2019-05-11T05:18:03.064Z,1000.55
2019-05-11T05:19:03.009Z,1000.54
2019-05-11T05:20:03.009Z,1000.56
2019-05-11T05:21:02.999Z,1000.57
2019-05-11T05:22:02.996Z,1000.58
2019-05-11T05:23:02.988Z,1000.62
2019-05-11T05:24:02.988Z,1000.63
2019-05-11T05:25:02.979Z,1000.68
2019-05-11T05:26:02.976Z,1000.65
2019-05-11T05:27:02.976Z,1000.70
2019-05-11T05:28:02.962Z,1000.73
2019-05-11T05:29:02.961Z,1000.71
2019-05-11T05:30:03.021Z,1000.76
2019-05-11T05:31:02.951Z,1000.72
2019-05-11T05:32:02.953Z,1000.74
2019-05-11T05:33:02.939Z,1000.72
2019-05-11T05:34:02.935Z,1000.72
2019-05-11T05:35:02.931Z,1000.78
2019-05-11T05:36:02.923Z,1000.81
2019-05-11T05:37:02.924Z,1000.74
2019-05-11T05:38:02.915Z,1000.74
2019-05-11T05:39:02.909Z,1000.77
2019-05-11T05:40:02.904Z,1000.81
2019-05-11T05:41:02.906Z,1000.84
2019-05-11T05:42:02.894Z,1000.84
2019-05-11T05:43:02.891Z,1000.87
2019-05-11T05:44:02.888Z,1000.88
2019-05-11T05:45:02.881Z,1000.87
2019-05-11T05:46:02.879Z,1000.91
2019-05-11T05:47:02.873Z,1000.92
2019-05-11T05:48:02.877Z,1000.93
2019-05-11T05:49:02.865Z,1000.89
2019-05-11T05:50:02.861Z,1000.89
2019-05-11T05:51:02.854Z,1000.90
2019-05-11T05:52:02.853Z,1000.92
2019-05-11T05:53:02.845Z,1000.89
2019-05-11T05:54:02.838Z,1000.94
2019-05-11T05:55:02.835Z,1000.93
2019-05-11T05:56:02.829Z,1000.94
2019-05-11T05:57:02.825Z,1000.97
2019-05-11T05:58:02.824Z,1000.93
2019-05-11T05:59:02.819Z,1000.97
2019-05-11T06:00:02.813Z,1000.98
2019-05-11T06:01:02.807Z,1000.98
2019-05-11T06:02:02.805Z,1000.96
2019-05-11T06:03:02.805Z,1000.95
2019-05-11T06:04:02.793Z,1000.93
2019-05-11T06:05:02.790Z,1000.96
2019-05-11T06:06:02.785Z,1000.94
2019-05-11T06:07:02.780Z,1000.91
2019-05-11T06:08:02.778Z,1000.94
2019-05-11T06:09:02.772Z,1000.94
2019-05-11T06:10:02.770Z,1000.91
2019-05-11T06:11:02.765Z,1000.88
2019-05-11T06:12:02.761Z,1000.89
2019-05-11T06:13:02.754Z,1000.88
2019-05-11T06:14:02.751Z,1000.91
2019-05-11T06:15:02.745Z,1000.86
2019-05-11T06:16:02.740Z,1000.85
2019-05-11T06:17:02.735Z,1000.86
2019-05-11T06:18:02.735Z,1000.87
2019-05-11T06:19:02.728Z,1000.89
2019-05-11T06:20:03.601Z,1000.82
2019-05-11T06:21:02.718Z,1000.87
2019-05-11T06:22:02.728Z,1000.86
2019-05-11T06:23:02.711Z,1000.86
2019-05-11T06:24:06.812Z,1000.90
2019-05-11T06:25:02.703Z,1000.93
2019-05-11T06:26:02.697Z,1000.91
2019-05-11T06:27:02.693Z,1000.91
2019-05-11T06:28:02.686Z,1000.90
2019-05-11T06:29:02.682Z,1000.92
2019-05-11T06:30:02.679Z,1000.93
2019-05-11T06:31:02.685Z,1000.96
2019-05-11T06:32:02.669Z,1000.94
2019-05-11T06:33:02.666Z,1000.99
2019-05-11T06:34:02.666Z,1000.97
2019-05-11T06:35:02.830Z,1001.05
2019-05-11T06:36:02.651Z,1001.07
2019-05-11T06:37:02.647Z,1001.10
2019-05-11T06:38:02.644Z,1001.10
2019-05-11T06:39:02.640Z,1001.16
2019-05-11T06:40:02.633Z,1001.19
2019-05-11T06:41:02.633Z,1001.16
2019-05-11T06:42:02.630Z,1001.16
2019-05-11T06:43:02.622Z,1001.19
2019-05-11T06:44:02.617Z,1001.13
2019-05-11T06:45:02.615Z,1001.14
2019-05-11T06:46:02.619Z,1001.15
2019-05-11T06:47:02.608Z,1001.14
2019-05-11T06:48:02.603Z,1001.16
2019-05-11T06:49:02.598Z,1001.19
2019-05-11T06:50:02.595Z,1001.16
2019-05-11T06:51:02.594Z,1001.13
2019-05-11T06:52:02.587Z,1001.13
2019-05-11T06:53:02.583Z,1001.14
2019-05-11T06:54:02.578Z,1001.10
2019-05-11T06:55:02.575Z,1001.17
2019-05-11T06:56:02.571Z,1001.17
2019-05-11T06:57:02.570Z,1001.20
2019-05-11T06:58:02.565Z,1001.24
2019-05-11T06:59:02.559Z,1001.23
2019-05-11T07:00:02.554Z,1001.23
2019-05-11T07:01:02.552Z,1001.29
2019-05-11T07:02:02.548Z,1001.30
2019-05-11T07:03:02.548Z,1001.30
2019-05-11T07:04:02.538Z,1001.31
2019-05-11T07:05:02.538Z,1001.33
2019-05-11T07:06:02.531Z,1001.35
2019-05-11T07:07:02.528Z,1001.37
2019-05-11T07:08:02.524Z,1001.31
2019-05-11T07:09:02.519Z,1001.32
2019-05-11T07:10:02.517Z,1001.35
2019-05-11T07:11:02.513Z,1001.34
2019-05-11T07:12:02.581Z,1001.36
2019-05-11T07:13:02.505Z,1001.38
2019-05-11T07:14:19.352Z,1001.36
2019-05-11T07:15:02.503Z,1001.39
2019-05-11T07:16:02.559Z,1001.33
2019-05-11T07:17:02.492Z,1001.40
2019-05-11T07:18:02.491Z,1001.40
2019-05-11T07:19:02.487Z,1001.43
2019-05-11T07:20:02.480Z,1001.41
2019-05-11T07:21:02.477Z,1001.46
2019-05-11T07:22:02.476Z,1001.48
2019-05-11T07:23:02.473Z,1001.50
2019-05-11T07:24:02.469Z,1001.50
2019-05-11T07:25:02.464Z,1001.53
2019-05-11T07:26:02.468Z,1001.48
2019-05-11T07:27:02.459Z,1001.55
2019-05-11T07:28:02.486Z,1001.61
2019-05-11T07:29:02.455Z,1001.62
2019-05-11T07:30:02.450Z,1001.65
2019-05-11T07:31:02.447Z,1001.68
2019-05-11T07:32:09.898Z,1001.66
2019-05-11T07:33:02.440Z,1001.65
2019-05-11T07:34:02.438Z,1001.65
2019-05-11T07:35:02.437Z,1001.58
2019-05-11T07:36:02.431Z,1001.61
2019-05-11T07:37:02.428Z,1001.62
2019-05-11T07:38:02.429Z,1001.59
2019-05-11T07:39:02.425Z,1001.61
2019-05-11T07:40:02.426Z,1001.63
2019-05-11T07:41:02.424Z,1001.73
2019-05-11T07:42:02.417Z,1001.69
2019-05-11T07:43:05.961Z,1001.69
2019-05-11T07:44:02.413Z,1001.65
2019-05-11T07:45:02.411Z,1001.67
2019-05-11T07:46:02.409Z,1001.68
2019-05-11T07:47:02.407Z,1001.68
2019-05-11T07:48:02.404Z,1001.65
2019-05-11T07:49:02.403Z,1001.79
2019-05-11T07:50:02.400Z,1001.85
2019-05-11T07:51:02.398Z,1001.98
2019-05-11T07:52:02.396Z,1001.95
2019-05-11T07:53:02.397Z,1001.93
2019-05-11T07:54:02.393Z,1001.94
2019-05-11T07:55:02.445Z,1001.90
2019-05-11T07:56:02.393Z,1001.92
2019-05-11T07:57:02.391Z,1001.98
2019-05-11T07:58:02.390Z,1002.02
2019-05-11T07:59:02.389Z,1002.06
2019-05-11T08:00:02.391Z,1002.15
2019-05-11T08:01:02.388Z,1002.28
2019-05-11T08:02:02.386Z,1002.16
2019-05-11T08:03:02.388Z,1002.13
2019-05-11T08:04:02.386Z,1002.20
2019-05-11T08:05:02.391Z,1002.30
2019-05-11T08:06:02.919Z,1002.55
2019-05-11T08:07:02.388Z,1002.35
2019-05-11T08:08:02.387Z,1002.29
2019-05-11T08:09:02.388Z,1002.25
2019-05-11T08:10:02.390Z,1002.26
2019-05-11T08:11:02.392Z,1002.25
2019-05-11T08:12:02.392Z,1002.36
2019-05-11T08:13:02.397Z,1002.67
2019-05-11T08:14:02.405Z,1002.46
2019-05-11T08:15:09.020Z,1002.27
2019-05-11T08:16:02.399Z,1002.40
2019-05-11T08:17:02.399Z,1002.38
2019-05-11T08:18:02.401Z,1002.35
2019-05-11T08:19:02.409Z,1002.23
2019-05-11T08:20:02.403Z,1002.26
2019-05-11T08:21:02.405Z,1002.22
2019-05-11T08:22:02.409Z,1002.22
2019-05-11T08:23:02.409Z,1002.21
2019-05-11T08:24:02.411Z,1002.12
2019-05-11T08:25:02.412Z,1002.14
2019-05-11T08:26:02.415Z,1002.09
2019-05-11T08:27:02.417Z,1002.07
2019-05-11T08:28:02.417Z,1002.10
2019-05-11T08:29:02.419Z,1002.01
2019-05-11T08:30:02.419Z,1002.06
2019-05-11T08:31:02.423Z,1002.11
2019-05-11T08:32:02.420Z,1002.06
2019-05-11T08:33:02.422Z,1002.03
2019-05-11T08:34:02.425Z,1002.07
2019-05-11T08:35:02.424Z,1002.07
2019-05-11T08:36:02.426Z,1002.05
2019-05-11T08:37:02.427Z,1002.08
2019-05-11T08:38:02.424Z,1002.12
2019-05-11T08:39:02.424Z,1002.15
2019-05-11T08:40:02.423Z,1002.18
2019-05-11T08:41:02.425Z,1002.14
2019-05-11T08:42:03.340Z,1002.22
2019-05-11T08:43:02.426Z,1002.20
2019-05-11T08:44:02.422Z,1002.30
2019-05-11T08:45:16.101Z,1002.18
2019-05-11T08:46:02.423Z,1002.32
2019-05-11T08:47:02.423Z,1002.21
2019-05-11T08:48:02.420Z,1002.28
2019-05-11T08:49:02.421Z,1002.38
2019-05-11T08:50:02.418Z,1002.28
2019-05-11T08:51:02.418Z,1002.31
2019-05-11T08:52:02.418Z,1002.29
2019-05-11T08:53:02.417Z,1002.31
2019-05-11T08:54:02.414Z,1002.35
2019-05-11T08:55:02.414Z,1002.41
2019-05-11T08:56:02.416Z,1002.37
2019-05-11T08:57:02.412Z,1002.41
2019-05-11T08:58:02.413Z,1002.46
2019-05-11T08:59:02.411Z,1002.43
2019-05-11T09:00:02.414Z,1002.52
2019-05-11T09:01:02.409Z,1002.49
2019-05-11T09:02:02.409Z,1002.53
2019-05-11T09:03:02.409Z,1002.57
2019-05-11T09:04:02.408Z,1002.51
2019-05-11T09:05:02.409Z,1002.55
2019-05-11T09:06:02.409Z,1002.50
2019-05-11T09:07:02.407Z,1002.62
2019-05-11T09:08:02.405Z,1002.59
2019-05-11T09:09:02.405Z,1002.65
2019-05-11T09:10:02.411Z,1002.66
2019-05-11T09:11:02.407Z,1002.62
2019-05-11T09:12:02.407Z,1002.63
2019-05-11T09:13:02.406Z,1002.64
2019-05-11T09:14:02.408Z,1002.63
2019-05-11T09:15:02.408Z,1002.63
2019-05-11T09:16:02.407Z,1002.72
2019-05-11T09:17:02.406Z,1002.71
2019-05-11T09:18:02.406Z,1002.74
2019-05-11T09:19:02.407Z,1002.83
2019-05-11T09:20:02.406Z,1002.87
2019-05-11T09:21:02.406Z,1002.84
2019-05-11T09:22:03.292Z,1002.84
2019-05-11T09:23:02.407Z,1002.88
2019-05-11T09:24:02.405Z,1002.92
2019-05-11T09:25:02.407Z,1002.95
2019-05-11T09:26:02.408Z,1002.91
2019-05-11T09:27:02.407Z,1002.97
2019-05-11T09:28:02.406Z,1003.01
2019-05-11T09:29:02.406Z,1003.09
2019-05-11T09:30:02.408Z,1003.18
2019-05-11T09:31:02.408Z,1003.14
2019-05-11T09:32:02.407Z,1003.14
2019-05-11T09:33:02.407Z,1003.05
2019-05-11T09:34:02.424Z,1003.13
2019-05-11T09:35:02.408Z,1003.10
2019-05-11T09:36:02.409Z,1003.06
2019-05-11T09:37:02.410Z,1003.12
2019-05-11T09:38:02.410Z,1003.01
2019-05-11T09:39:02.412Z,1003.14
2019-05-11T09:40:02.417Z,1003.25
2019-05-11T09:41:02.412Z,1003.30
2019-05-11T09:42:02.414Z,1003.54
2019-05-11T09:43:02.414Z,1003.55
2019-05-11T09:44:02.420Z,1003.63
2019-05-11T09:45:02.415Z,1003.62
2019-05-11T09:46:02.420Z,1003.60
2019-05-11T09:47:02.725Z,1003.66
2019-05-11T09:48:02.420Z,1003.54
2019-05-11T09:49:02.423Z,1003.55
2019-05-11T09:50:02.425Z,1003.72
2019-05-11T09:51:02.430Z,1003.55
2019-05-11T09:52:02.428Z,1003.60
2019-05-11T09:53:02.433Z,1003.72
2019-05-11T09:54:02.434Z,1003.72
2019-05-11T09:55:02.437Z,1003.84
2019-05-11T09:56:02.438Z,1003.77
2019-05-11T09:57:02.443Z,1003.76
2019-05-11T09:58:02.448Z,1003.78
2019-05-11T09:59:02.453Z,1003.72
2019-05-11T10:00:02.454Z,1003.78
2019-05-11T10:01:02.461Z,1003.83
2019-05-11T10:02:02.460Z,1003.73
2019-05-11T10:03:02.464Z,1003.58
2019-05-11T10:04:02.467Z,1003.75
2019-05-11T10:05:02.471Z,1003.76
2019-05-11T10:06:02.476Z,1003.69
2019-05-11T10:07:02.480Z,1003.70
2019-05-11T10:08:02.483Z,1003.73
2019-05-11T10:09:02.489Z,1003.70
2019-05-11T10:10:02.494Z,1003.73
2019-05-11T10:11:02.500Z,1003.81
2019-05-11T10:12:02.500Z,1003.83
2019-05-11T10:13:02.507Z,1003.83
2019-05-11T10:14:02.512Z,1003.73
2019-05-11T10:15:02.519Z,1003.73
2019-05-11T10:16:07.069Z,1003.63
2019-05-11T10:17:02.730Z,1003.52
2019-05-11T10:18:02.530Z,1003.69
2019-05-11T10:19:02.538Z,1003.66
2019-05-11T10:20:02.540Z,1003.61
2019-05-11T10:21:02.543Z,1003.66
2019-05-11T10:22:02.549Z,1003.63
2019-05-11T10:23:02.552Z,1003.71
2019-05-11T10:24:02.557Z,1003.74
2019-05-11T10:25:02.562Z,1003.92
2019-05-11T10:26:02.565Z,1004.10
2019-05-11T10:27:02.570Z,1004.08
2019-05-11T10:28:02.578Z,1004.16
2019-05-11T10:29:02.577Z,1004.19
2019-05-11T10:30:02.581Z,1004.21
2019-05-11T10:31:02.585Z,1004.16
2019-05-11T10:32:02.590Z,1004.18
2019-05-11T10:33:02.594Z,1004.12
2019-05-11T10:34:02.598Z,1003.88
2019-05-11T10:35:02.603Z,1004.04
2019-05-11T10:36:03.207Z,1004.14
2019-05-11T10:37:02.612Z,1004.17
2019-05-11T10:38:02.616Z,1004.16
2019-05-11T10:39:02.644Z,1004.21
2019-05-11T10:40:02.625Z,1004.07
2019-05-11T10:41:02.629Z,1004.12
2019-05-11T10:42:02.633Z,1004.15
2019-05-11T10:43:03.002Z,1004.10
2019-05-11T10:44:02.642Z,1004.17
2019-05-11T10:45:02.873Z,1004.17
2019-05-11T10:46:15.991Z,1004.08
2019-05-11T10:47:02.656Z,1004.03
2019-05-11T10:48:02.863Z,1004.09
2019-05-11T10:49:03.027Z,1004.16
2019-05-11T10:50:02.730Z,1004.07
2019-05-11T10:51:02.681Z,1004.00
2019-05-11T10:52:02.678Z,1004.08
2019-05-11T10:53:02.686Z,1004.07
2019-05-11T10:54:02.690Z,1004.11
2019-05-11T10:55:02.813Z,1004.12
2019-05-11T10:56:02.722Z,1004.16
2019-05-11T10:57:02.905Z,1004.09
2019-05-11T10:58:02.707Z,1004.15
2019-05-11T10:59:02.711Z,1004.02
2019-05-11T11:00:03.080Z,1003.94
2019-05-11T11:01:02.718Z,1003.94
2019-05-11T11:02:02.723Z,1003.93
2019-05-11T11:03:02.728Z,1003.97
2019-05-11T11:04:02.731Z,1004.06
2019-05-11T11:05:02.735Z,1003.97
2019-05-11T11:06:02.737Z,1004.05
2019-05-11T11:07:02.745Z,1004.20
2019-05-11T11:08:02.742Z,1004.09
2019-05-11T11:09:02.748Z,1004.22
2019-05-11T11:10:02.750Z,1004.15
2019-05-11T11:11:02.754Z,1004.30
2019-05-11T11:12:02.758Z,1004.23
2019-05-11T11:13:02.758Z,1004.25
2019-05-11T11:14:02.964Z,1004.28
2019-05-11T11:15:02.764Z,1004.36
2019-05-11T11:16:03.131Z,1004.24
2019-05-11T11:17:02.770Z,1004.34
2019-05-11T11:18:02.773Z,1004.31
2019-05-11T11:19:02.775Z,1004.33
2019-05-11T11:20:02.777Z,1004.30
2019-05-11T11:21:46.105Z,1004.24
2019-05-11T11:22:48.175Z,1004.37
2019-05-11T11:23:48.002Z,1004.30
2019-05-11T11:24:48.019Z,1004.41
2019-05-11T11:26:48.413Z,1004.40
2019-05-11T11:27:48.422Z,1004.47
2019-05-11T11:28:47.813Z,1004.46
2019-05-11T11:29:47.536Z,1004.43
2019-05-11T11:30:47.983Z,1004.44
2019-05-11T11:31:47.996Z,1004.39
2019-05-11T11:32:48.097Z,1004.40
2019-05-11T11:33:48.630Z,1004.40
2019-05-11T11:34:48.353Z,1004.42
2019-05-11T11:35:47.691Z,1004.48
2019-05-11T11:36:48.065Z,1004.43
2019-05-11T11:37:47.809Z,1004.49
2019-05-11T11:38:47.885Z,1004.44
2019-05-11T11:39:47.651Z,1004.47
2019-05-11T11:40:48.209Z,1004.45
2019-05-11T11:41:48.377Z,1004.44
2019-05-11T11:42:47.821Z,1004.44
2019-05-11T11:43:48.110Z,1004.48
2019-05-11T11:44:48.230Z,1004.49
2019-05-11T11:45:48.278Z,1004.43
2019-05-11T11:46:54.247Z,1004.47
2019-05-11T11:47:46.149Z,1004.48
2019-05-11T11:48:48.550Z,1004.53
2019-05-11T11:49:47.557Z,1004.51
2019-05-11T11:50:48.005Z,1004.46
2019-05-11T11:51:47.860Z,1004.48
2019-05-11T11:52:47.681Z,1004.51
2019-05-11T11:53:47.732Z,1004.60
2019-05-11T11:54:47.858Z,1004.55
2019-05-11T11:55:48.031Z,1004.57
2019-05-11T11:56:48.339Z,1004.49
2019-05-11T11:57:48.464Z,1004.52
2019-05-11T11:58:48.529Z,1004.52
2019-05-11T11:59:48.136Z,1004.54
2019-05-11T12:00:48.063Z,1004.59
2019-05-11T12:01:48.515Z,1004.57
2019-05-11T12:02:48.560Z,1004.58
2019-05-11T12:03:48.470Z,1004.58
2019-05-11T12:04:46.161Z,1004.54
2019-05-11T12:05:47.763Z,1004.52
2019-05-11T12:06:46.162Z,1004.54
2019-05-11T12:07:46.160Z,1004.64
2019-05-11T12:08:46.163Z,1004.70
2019-05-11T12:09:48.319Z,1004.69
2019-05-11T12:10:48.296Z,1004.66
2019-05-11T12:11:48.412Z,1004.68
2019-05-11T12:12:47.555Z,1004.74
2019-05-11T12:13:47.532Z,1004.79
2019-05-11T12:14:47.937Z,1004.77
2019-05-11T12:15:48.018Z,1004.82
2019-05-11T12:16:47.935Z,1004.76
2019-05-11T12:17:48.094Z,1004.80